Time;durP1;ratioP1;P1;durP2;ratioP2;P2;SDS_P1;SDS_P2;PMS_P1;PMS_P2;Temp;Humidity;BMP_temperature;BMP_pressure;BME280_temperature;BME280_humidity;BME280_pressure;Samples;Min_cycle;Max_cycle;Signal;HPM_P1;HPM_P2
2023/05/18 00:00:00;;;;;;;1.60;1.10;;;;;;;13.98;100.00;99842.76;105179;1262;75034;-52
2023/05/18 00:02:30;;;;;;;1.30;1.00;;;;;;;13.95;100.00;99842.55;104977;1260;61688;-52
2023/05/18 00:05:00;;;;;;;1.10;0.90;;;;;;;13.93;100.00;99847.71;104964;1260;62279;-49
2023/05/18 00:07:32;;;;;;;1.50;1.20;;;;;;;13.92;100.00;99853.73;105251;1260;76117;-52
2023/05/18 00:10:00;;;;;;;1.90;1.20;;;;;;;13.90;100.00;99848.64;105157;1259;66838;-52
2023/05/18 00:12:27;;;;;;;3.30;2.00;;;;;;;13.87;100.00;99854.19;105297;1263;74057;-53
2023/05/18 00:14:54;;;;;;;3.00;1.00;;;;;;;13.84;100.00;99854.59;105146;1262;60370;-54
2023/05/18 00:17:21;;;;;;;3.60;1.40;;;;;;;13.81;100.00;99850.09;105208;1260;60553;-53
2023/05/18 00:19:49;;;;;;;1.70;1.30;;;;;;;13.78;100.00;99854.25;105177;1263;75229;-53
2023/05/18 00:22:18;;;;;;;2.70;1.30;;;;;;;13.74;100.00;99848.34;105135;1260;68724;-54
2023/05/18 00:24:46;;;;;;;3.20;1.30;;;;;;;13.72;100.00;99847.95;105284;1260;73085;-51
2023/05/18 00:27:13;;;;;;;1.80;1.40;;;;;;;13.68;100.00;99849.65;105390;1260;60495;-54
2023/05/18 00:29:40;;;;;;;1.80;1.10;;;;;;;13.63;100.00;99853.30;105137;1262;62855;-52
2023/05/18 00:32:07;;;;;;;3.60;1.00;;;;;;;13.59;100.00;99847.41;105076;1260;74436;-54
2023/05/18 00:34:35;;;;;;;2.50;1.30;;;;;;;13.56;100.00;99848.88;105331;1260;68870;-50
2023/05/18 00:37:02;;;;;;;2.50;1.10;;;;;;;13.52;100.00;99844.27;105064;1258;73906;-53
2023/05/18 00:39:29;;;;;;;2.50;1.30;;;;;;;13.49;100.00;99843.69;104983;1266;63275;-53
2023/05/18 00:41:56;;;;;;;3.50;1.20;;;;;;;13.47;100.00;99843.45;104969;1262;60342;-53
2023/05/18 00:44:23;;;;;;;4.00;1.10;;;;;;;13.45;100.00;99845.70;104948;1260;73556;-53
2023/05/18 00:46:50;;;;;;;1.70;0.90;;;;;;;13.45;100.00;99839.05;105343;1260;67305;-53
2023/05/18 00:49:17;;;;;;;4.80;1.20;;;;;;;13.46;100.00;99840.10;104982;1260;72822;-53
2023/05/18 00:51:44;;;;;;;4.30;1.50;;;;;;;13.47;100.00;99839.69;104997;1265;60486;-54
2023/05/18 00:54:11;;;;;;;2.40;1.20;;;;;;;13.48;100.00;99841.77;105008;1260;60843;-54
2023/05/18 00:56:40;;;;;;;3.30;1.50;;;;;;;13.50;100.00;99844.02;105080;1260;72280;-53
2023/05/18 00:59:11;;;;;;;4.90;1.40;;;;;;;13.51;100.00;99845.59;105245;1260;66425;-52
2023/05/18 01:01:42;;;;;;;3.10;1.40;;;;;;;13.51;100.00;99846.10;105263;1260;72668;-53
2023/05/18 01:04:12;;;;;;;7.00;1.30;;;;;;;13.52;100.00;99844.98;105970;1262;61564;-51
2023/05/18 01:06:40;;;;;;;1.60;1.50;;;;;;;13.52;100.00;99844.81;105855;1258;61762;-49
2023/05/18 01:09:09;;;;;;;4.40;1.50;;;;;;;13.52;100.00;99848.55;104990;1258;73009;-51
2023/05/18 01:11:48;;;;;;;2.70;1.80;;;;;;;13.52;100.00;99848.03;105725;1259;68328;-50
2023/05/18 01:14:33;;;;;;;2.10;1.40;;;;;;;13.53;100.00;99849.44;105541;1262;74171;-50
2023/05/18 01:17:02;;;;;;;;;;;;;;;13.53;100.00;99853.56;105114;1260;63312;-50
2023/05/18 01:19:41;;;;;;;6.80;1.00;;;;;;;13.52;100.00;99851.99;105095;1263;60296;-49
2023/05/18 01:22:44;;;;;;;4.30;1.10;;;;;;;13.50;100.00;99855.54;105010;1263;76352;-49
2023/05/18 01:25:35;;;;;;;3.10;1.30;;;;;;;13.49;100.00;99859.58;105024;1259;68026;-51
2023/05/18 01:28:05;;;;;;;1.40;1.00;;;;;;;13.48;100.00;99855.65;104951;1262;74348;-49
2023/05/18 01:30:33;;;;;;;1.40;1.00;;;;;;;13.47;100.00;99862.75;108664;1261;61443;-51
2023/05/18 01:33:00;;;;;;;3.30;1.00;;;;;;;13.46;100.00;99859.71;108653;1261;59388;-51
2023/05/18 01:35:27;;;;;;;2.40;1.10;;;;;;;13.46;100.00;99860.48;107117;1262;72784;-49
2023/05/18 01:37:56;;;;;;;2.80;1.50;;;;;;;13.45;100.00;99863.93;108720;1258;67594;-51
2023/05/18 01:40:23;;;;;;;4.20;1.60;;;;;;;13.44;100.00;99866.18;105848;1262;72959;-53
2023/05/18 01:42:50;;;;;;;1.60;1.20;;;;;;;13.41;100.00;99869.93;104709;1259;62338;-52
2023/05/18 01:45:20;;;;;;;2.70;1.30;;;;;;;13.38;100.00;99868.12;108635;1260;60744;-53
2023/05/18 01:47:47;;;;;;;1.90;1.60;;;;;;;13.36;100.00;99876.19;108727;1258;74161;-54
2023/05/18 01:50:18;;;;;;;4.00;1.50;;;;;;;13.34;100.00;99875.63;108639;1260;69777;-55
2023/05/18 01:52:52;;;;;;;1.60;1.40;;;;;;;13.31;100.00;99875.23;108630;1260;73594;-53
2023/05/18 01:55:18;;;;;;;2.00;1.20;;;;;;;13.29;100.00;99878.72;108717;1258;61983;-55
2023/05/18 01:57:46;;;;;;;1.30;1.00;;;;;;;13.29;100.00;99881.09;108660;1260;61860;-53
2023/05/18 02:00:15;;;;;;;3.30;1.30;;;;;;;13.29;100.00;99886.52;108482;1260;74815;-54
2023/05/18 02:02:43;;;;;;;2.70;1.10;;;;;;;13.29;100.00;99885.62;108688;1259;67039;-54
2023/05/18 02:05:11;;;;;;;2.00;1.70;;;;;;;13.28;100.00;99887.63;108631;1260;71392;-55
2023/05/18 02:07:38;;;;;;;1.80;0.90;;;;;;;13.28;100.00;99889.79;108652;1260;64070;-54
2023/05/18 02:10:07;;;;;;;1.70;0.90;;;;;;;13.28;100.00;99888.74;108528;1260;59230;-54
2023/05/18 02:12:34;;;;;;;4.00;1.20;;;;;;;13.28;100.00;99890.00;108644;1260;74407;-53
2023/05/18 02:15:04;;;;;;;2.00;1.70;;;;;;;13.27;100.00;99895.48;106158;1264;67516;-53
2023/05/18 02:17:32;;;;;;;2.10;1.50;;;;;;;13.25;100.00;99896.27;105136;1260;72374;-52
2023/05/18 02:19:59;;;;;;;2.50;1.60;;;;;;;13.23;100.00;99894.05;107295;1260;62329;-51
2023/05/18 02:22:26;;;;;;;2.40;1.30;;;;;;;13.21;100.00;99896.13;104625;1262;61582;-52
2023/05/18 02:24:53;;;;;;;2.50;1.40;;;;;;;13.20;100.00;99892.95;104912;1260;74294;-53
2023/05/18 02:27:19;;;;;;;3.40;1.20;;;;;;;13.18;100.00;99894.52;105000;1260;67301;-51
2023/05/18 02:29:47;;;;;;;3.50;1.50;;;;;;;13.16;100.00;99896.06;105218;1261;73846;-52
2023/05/18 02:32:14;;;;;;;2.10;1.20;;;;;;;13.12;100.00;99894.65;104980;1261;60838;-52
2023/05/18 02:34:41;;;;;;;1.60;1.20;;;;;;;13.08;100.00;99897.06;105349;1260;60448;-50
2023/05/18 02:37:08;;;;;;;1.70;1.00;;;;;;;13.06;100.00;99906.35;105104;1262;76054;-50
2023/05/18 02:39:35;;;;;;;1.80;1.30;;;;;;;13.04;100.00;99905.91;105284;1262;65461;-50
2023/05/18 02:42:01;;;;;;;1.60;1.20;;;;;;;13.05;100.00;99908.77;105363;1257;74764;-53
2023/05/18 02:44:28;;;;;;;1.40;1.30;;;;;;;13.03;100.00;99911.90;105284;1262;62548;-51
2023/05/18 02:46:55;;;;;;;3.00;1.00;;;;;;;13.02;100.00;99910.16;105014;1257;62262;-50
2023/05/18 02:49:22;;;;;;;1.60;1.20;;;;;;;13.01;100.00;99915.29;105316;1257;73875;-51
2023/05/18 02:51:50;;;;;;;1.60;1.10;;;;;;;12.99;100.00;99916.48;105193;1257;69743;-53
2023/05/18 02:54:17;;;;;;;1.40;1.30;;;;;;;12.98;100.00;99916.89;104789;1260;71479;-50
2023/05/18 02:56:43;;;;;;;2.00;1.00;;;;;;;12.97;100.00;99913.69;104666;1257;62172;-50
2023/05/18 02:59:25;;;;;;;1.80;1.50;;;;;;;12.97;100.00;99914.25;104740;1262;62918;-52
2023/05/18 03:01:52;;;;;;;3.00;1.60;;;;;;;12.98;100.00;99910.92;104650;1264;76031;-50
2023/05/18 03:04:20;;;;;;;2.10;1.00;;;;;;;13.00;100.00;99914.09;105892;1259;68666;-51
2023/05/18 03:06:51;;;;;;;4.30;1.50;;;;;;;13.02;100.00;99916.67;105164;1260;71694;-51
2023/05/18 03:09:19;;;;;;;2.30;1.50;;;;;;;13.02;100.00;99918.80;105474;1263;60569;-53
2023/05/18 03:11:46;;;;;;;6.70;1.90;;;;;;;13.03;100.00;99922.90;105669;1258;61293;-50
2023/05/18 03:14:13;;;;;;;1.20;1.10;;;;;;;13.04;100.00;99924.14;105269;1262;74212;-51
2023/05/18 03:16:42;;;;;;;1.50;1.00;;;;;;;13.05;100.00;99922.24;105209;1265;68459;-49
2023/05/18 03:19:13;;;;;;;4.50;1.30;;;;;;;13.07;100.00;99922.67;105181;1257;73919;-52
2023/05/18 03:21:40;;;;;;;1.40;0.90;;;;;;;13.10;100.00;99923.75;105528;1262;64209;-54
2023/05/18 03:24:07;;;;;;;1.70;0.90;;;;;;;13.15;100.00;99923.15;106804;1257;62443;-52
2023/05/18 03:26:38;;;;;;;2.40;1.50;;;;;;;13.21;100.00;99919.73;106086;1262;75896;-48
2023/05/18 03:29:05;;;;;;;3.00;1.40;;;;;;;13.28;100.00;99918.63;105633;1257;68234;-50
2023/05/18 03:31:32;;;;;;;3.60;1.80;;;;;;;13.36;100.00;99919.81;105230;1259;70594;-51
2023/05/18 03:33:59;;;;;;;3.30;1.30;;;;;;;13.45;100.00;99921.46;105278;1257;64910;-49
2023/05/18 03:36:26;;;;;;;1.40;1.30;;;;;;;13.53;100.00;99923.89;105203;1257;60963;-51
2023/05/18 03:38:53;;;;;;;3.00;1.40;;;;;;;13.62;100.00;99921.90;105390;1257;73224;-51
2023/05/18 03:41:20;;;;;;;1.70;1.10;;;;;;;13.72;100.00;99921.72;105020;1257;67771;-51
2023/05/18 03:43:47;;;;;;;2.00;1.00;;;;;;;13.81;100.00;99924.73;105149;1260;74941;-50
2023/05/18 03:46:14;;;;;;;1.80;1.10;;;;;;;13.90;100.00;99926.90;105191;1262;64238;-49
2023/05/18 03:48:41;;;;;;;2.10;1.30;;;;;;;13.98;100.00;99927.52;105264;1257;61903;-52
2023/05/18 03:51:08;;;;;;;1.40;1.10;;;;;;;14.06;100.00;99928.32;105082;1264;75261;-51
2023/05/18 03:53:35;;;;;;;4.40;1.00;;;;;;;14.14;100.00;99931.45;105301;1257;67243;-52
2023/05/18 03:56:02;;;;;;;4.40;0.90;;;;;;;14.24;100.00;99933.73;106303;1257;72564;-52
2023/05/18 03:58:29;;;;;;;2.00;1.00;;;;;;;14.37;100.00;99934.41;105103;1257;61372;-51
2023/05/18 04:00:56;;;;;;;1.90;1.00;;;;;;;14.48;100.00;99934.98;105122;1257;60437;-49
2023/05/18 04:03:25;;;;;;;2.80;0.90;;;;;;;14.59;100.00;99934.30;105026;1258;75182;-52
2023/05/18 04:05:53;;;;;;;2.60;0.90;;;;;;;14.70;100.00;99933.06;105505;1259;69309;-50
2023/05/18 04:08:19;;;;;;;5.40;1.10;;;;;;;14.80;100.00;99933.34;105001;1257;73324;-52
2023/05/18 04:10:46;;;;;;;3.60;1.00;;;;;;;14.91;100.00;99932.66;104906;1262;61541;-49
2023/05/18 04:13:13;;;;;;;1.80;0.90;;;;;;;15.01;100.00;99938.33;105222;1257;62194;-50
2023/05/18 04:15:42;;;;;;;1.70;0.90;;;;;;;15.12;100.00;99941.63;107000;1257;74362;-50
2023/05/18 04:18:09;;;;;;;1.30;1.00;;;;;;;15.25;100.00;99943.66;106164;1262;67522;-50
2023/05/18 04:20:40;;;;;;;1.10;1.00;;;;;;;15.38;100.00;99943.91;105246;1262;72697;-49
2023/05/18 04:23:08;;;;;;;3.30;1.00;;;;;;;15.49;100.00;99946.08;105800;1264;62473;-50
2023/05/18 04:25:38;;;;;;;3.30;1.10;;;;;;;15.60;100.00;99946.84;108801;1257;60557;-49
2023/05/18 04:28:05;;;;;;;3.10;0.80;;;;;;;15.70;100.00;99951.94;108695;1257;75834;-50
2023/05/18 04:30:34;;;;;;;3.70;0.80;;;;;;;15.80;100.00;99951.27;108792;1257;70720;-49
2023/05/18 04:33:02;;;;;;;3.10;1.00;;;;;;;15.91;100.00;99953.64;108794;1257;71613;-48
2023/05/18 04:35:30;;;;;;;1.50;0.70;;;;;;;16.02;100.00;99952.34;108748;1257;63827;-50
2023/05/18 04:37:57;;;;;;;3.60;0.90;;;;;;;16.14;100.00;99953.48;108781;1257;62304;-50
2023/05/18 04:40:24;;;;;;;1.90;0.90;;;;;;;16.27;100.00;99954.41;108800;1257;74457;-49
2023/05/18 04:42:51;;;;;;;4.10;0.90;;;;;;;16.42;100.00;99956.31;108803;1258;67101;-49
2023/05/18 04:45:24;;;;;;;1.30;0.90;;;;;;;16.54;100.00;99957.79;108809;1257;72830;-48
2023/05/18 04:47:53;;;;;;;3.80;1.10;;;;;;;16.68;100.00;99958.31;108790;1257;61075;-50
2023/05/18 04:50:24;;;;;;;4.80;1.00;;;;;;;16.79;100.00;99952.61;108708;1257;62316;-49
2023/05/18 04:52:51;;;;;;;3.60;0.90;;;;;;;16.91;100.00;99955.95;108765;1257;74449;-49
2023/05/18 04:55:26;;;;;;;2.40;0.90;;;;;;;17.01;100.00;99958.08;108719;1260;68667;-49
2023/05/18 04:57:59;;;;;;;1.20;1.00;;;;;;;17.13;100.00;99959.05;108529;1257;74816;-50
2023/05/18 05:00:27;;;;;;;1.10;0.80;;;;;;;17.24;100.00;99960.75;108777;1257;61354;-49
2023/05/18 05:02:55;;;;;;;3.30;1.00;;;;;;;17.34;100.00;99963.66;108781;1257;62387;-49
2023/05/18 05:05:22;;;;;;;2.20;0.90;;;;;;;17.45;100.00;99963.44;108789;1257;74854;-49
2023/05/18 05:07:50;;;;;;;1.20;0.80;;;;;;;17.54;100.00;99963.68;108811;1256;69257;-47
2023/05/18 05:10:18;;;;;;;2.00;0.90;;;;;;;17.65;100.00;99968.34;107577;1257;74680;-46
2023/05/18 05:12:44;;;;;;;2.80;1.20;;;;;;;17.75;100.00;99971.58;104959;1262;61615;-51
2023/05/18 05:15:15;;;;;;;2.40;1.00;;;;;;;17.85;100.00;99972.85;104901;1262;60757;-49
2023/05/18 05:17:41;;;;;;;2.70;1.00;;;;;;;17.94;100.00;99969.59;104925;1257;73541;-52
2023/05/18 05:20:10;;;;;;;4.80;0.90;;;;;;;18.02;100.00;99973.30;104822;1257;67974;-49
2023/05/18 05:22:37;;;;;;;3.20;1.10;;;;;;;18.10;100.00;99971.83;106002;1260;76053;-52
2023/05/18 05:25:07;;;;;;;2.80;0.90;;;;;;;18.18;100.00;99972.12;105012;1256;60905;-49
2023/05/18 05:27:34;;;;;;;2.40;1.10;;;;;;;18.26;100.00;99972.99;104947;1257;62664;-51
2023/05/18 05:30:01;;;;;;;1.80;0.80;;;;;;;18.34;100.00;99975.09;105035;1257;76622;-48
2023/05/18 05:32:29;;;;;;;1.00;0.70;;;;;;;18.42;100.00;99972.45;105544;1258;68314;-48
2023/05/18 05:34:56;;;;;;;3.80;0.80;;;;;;;18.50;100.00;99970.87;105393;1262;74775;-49
2023/05/18 05:37:23;;;;;;;1.80;0.90;;;;;;;18.60;100.00;99966.20;105304;1260;60741;-50
2023/05/18 05:39:50;;;;;;;0.90;0.80;;;;;;;18.68;100.00;99968.13;104933;1262;62925;-52
2023/05/18 05:42:17;;;;;;;6.20;1.00;;;;;;;18.76;100.00;99969.42;106564;1260;76230;-48
2023/05/18 05:44:45;;;;;;;1.90;0.90;;;;;;;18.84;100.00;99972.80;105400;1256;69231;-49
2023/05/18 05:47:12;;;;;;;1.80;0.80;;;;;;;18.94;100.00;99979.66;105214;1258;73711;-51
2023/05/18 05:49:39;;;;;;;1.90;0.80;;;;;;;19.04;100.00;99978.14;105262;1255;62287;-51
2023/05/18 05:52:06;;;;;;;3.40;0.70;;;;;;;19.13;100.00;99981.40;105094;1261;60441;-50
2023/05/18 05:54:34;;;;;;;9.20;0.90;;;;;;;19.22;100.00;99980.64;105206;1257;74991;-50
2023/05/18 05:57:02;;;;;;;3.10;0.70;;;;;;;19.33;100.00;99982.70;105184;1257;69499;-49
2023/05/18 05:59:29;;;;;;;3.60;0.80;;;;;;;19.44;100.00;99983.63;105423;1262;73630;-52
2023/05/18 06:01:56;;;;;;;4.90;0.70;;;;;;;19.55;100.00;99983.50;105374;1259;60475;-50
2023/05/18 06:04:24;;;;;;;0.70;0.70;;;;;;;19.66;100.00;99981.99;105317;1263;60404;-48
2023/05/18 06:06:51;;;;;;;1.20;0.80;;;;;;;19.76;100.00;99981.73;105312;1256;73526;-51
2023/05/18 06:09:19;;;;;;;2.90;0.70;;;;;;;19.86;100.00;99980.15;106237;1262;65487;-48
2023/05/18 06:11:47;;;;;;;0.80;0.70;;;;;;;19.98;100.00;99984.63;105379;1260;73043;-50
2023/05/18 06:14:14;;;;;;;5.30;0.70;;;;;;;20.08;100.00;99989.07;105353;1257;61129;-47
2023/05/18 06:16:41;;;;;;;0.80;0.70;;;;;;;20.18;100.00;99990.05;105399;1262;60921;-49
2023/05/18 06:19:08;;;;;;;4.50;0.70;;;;;;;20.28;100.00;99994.67;105593;1263;75929;-48
2023/05/18 06:21:35;;;;;;;2.50;0.70;;;;;;;20.36;100.00;99993.08;105288;1263;68505;-48
2023/05/18 06:24:04;;;;;;;1.00;0.80;;;;;;;20.44;100.00;99994.98;105245;1263;75046;-48
2023/05/18 06:26:33;;;;;;;1.30;0.70;;;;;;;20.53;100.00;99995.35;105319;1263;60525;-46
2023/05/18 06:29:35;;;;;;;1.30;0.70;;;;;;;20.61;100.00;99997.53;105354;1258;60582;-53
2023/05/18 06:32:18;;;;;;;1.20;0.80;;;;;;;20.68;100.00;99997.95;105200;1262;76060;-49
2023/05/18 06:34:52;;;;;;;2.70;0.90;;;;;;;20.74;100.00;100001.33;105210;1257;68676;-48
2023/05/18 06:37:20;;;;;;;1.30;0.70;;;;;;;20.77;100.00;99999.72;105365;1257;74614;-47
2023/05/18 06:39:47;;;;;;;4.30;0.70;;;;;;;20.80;100.00;100001.13;105289;1260;61172;-50
2023/05/18 06:42:14;;;;;;;2.60;0.80;;;;;;;20.85;100.00;99998.91;105502;1263;60331;-48
2023/05/18 06:44:59;;;;;;;1.60;0.90;;;;;;;20.91;100.00;100001.45;105328;1261;74175;-50
2023/05/18 06:47:47;;;;;;;1.20;0.70;;;;;;;20.98;100.00;100006.27;105318;1261;69148;-49
2023/05/18 06:50:14;;;;;;;2.80;0.70;;;;;;;21.06;100.00;100007.98;105433;1262;77011;-47
2023/05/18 06:52:41;;;;;;;1.70;0.80;;;;;;;21.12;100.00;100005.40;105082;1262;60401;-48
2023/05/18 06:55:08;;;;;;;2.50;0.70;;;;;;;21.20;100.00;100000.23;105027;1262;61113;-48
2023/05/18 06:57:35;;;;;;;0.70;0.60;;;;;;;21.28;100.00;100002.10;104711;1258;75459;-53
2023/05/18 07:00:05;;;;;;;1.50;0.70;;;;;;;21.35;100.00;100002.51;105196;1262;68981;-47
2023/05/18 07:02:33;;;;;;;1.50;0.70;;;;;;;21.41;100.00;100003.66;105017;1262;73184;-54
2023/05/18 07:05:00;;;;;;;2.50;0.70;;;;;;;21.45;100.00;100004.59;105680;1258;60484;-53
2023/05/18 07:07:27;;;;;;;2.20;0.60;;;;;;;21.51;100.00;100005.67;104950;1264;62673;-53
2023/05/18 07:09:54;;;;;;;4.20;0.60;;;;;;;21.59;100.00;100003.87;104739;1261;75783;-53
2023/05/18 07:12:21;;;;;;;1.00;0.50;;;;;;;21.66;100.00;100007.20;104661;1263;67328;-54
2023/05/18 07:14:48;;;;;;;2.00;0.40;;;;;;;21.74;100.00;100008.80;104657;1257;72889;-54
2023/05/18 07:17:15;;;;;;;2.10;0.40;;;;;;;21.85;100.00;100009.27;104605;1269;60748;-51
2023/05/18 07:19:41;;;;;;;5.40;0.50;;;;;;;21.94;100.00;100008.84;104682;1260;63201;-50
2023/05/18 07:22:08;;;;;;;1.40;0.60;;;;;;;22.04;100.00;100013.48;104510;1262;76300;-50
2023/05/18 07:24:35;;;;;;;0.60;0.40;;;;;;;22.11;100.00;100014.39;104731;1258;69190;-52
2023/05/18 07:27:02;;;;;;;1.70;0.50;;;;;;;22.17;100.00;100011.30;104425;1262;73405;-50
2023/05/18 07:29:29;;;;;;;3.00;0.50;;;;;;;22.23;100.00;100015.45;108591;1257;60996;-49
2023/05/18 07:31:56;;;;;;;2.10;0.50;;;;;;;22.27;100.00;100016.99;108731;1257;60365;-49
2023/05/18 07:34:23;;;;;;;0.60;0.40;;;;;;;22.30;100.00;100015.95;105250;1263;75178;-51
2023/05/18 07:36:49;;;;;;;0.50;0.50;;;;;;;22.36;100.00;100013.57;104498;1260;65248;-49
2023/05/18 07:39:18;;;;;;;5.40;0.80;;;;;;;22.45;100.00;100017.33;104879;1263;74732;-51
2023/05/18 07:41:46;;;;;;;2.60;0.50;;;;;;;22.52;100.00;100014.80;108679;1257;60562;-51
2023/05/18 07:46:42;;;;;;;0.80;0.40;;;;;;;22.68;100.00;100008.58;102289;1296;601196;-52
2023/05/18 07:49:08;;;;;;;1.60;0.40;;;;;;;22.74;100.00;100018.02;107920;1272;61932;-52
2023/05/18 07:51:35;;;;;;;0.60;0.50;;;;;;;22.84;100.00;100021.66;107991;1267;62700;-50
2023/05/18 07:54:02;;;;;;;0.40;0.40;;;;;;;22.92;100.00;100019.58;108195;1267;72172;-51
2023/05/18 07:56:29;;;;;;;0.70;0.50;;;;;;;22.98;100.00;100021.10;108019;1267;72078;-53
2023/05/18 07:58:56;;;;;;;0.90;0.60;;;;;;;23.03;100.00;100020.82;105267;1270;71820;-53
2023/05/18 08:01:26;;;;;;;2.20;0.60;;;;;;;23.09;100.00;100021.49;104409;1264;169575;-50
2023/05/18 08:03:53;;;;;;;2.30;0.70;;;;;;;23.16;100.00;100024.45;104583;1270;60098;-53
2023/05/18 08:06:20;;;;;;;1.60;0.60;;;;;;;23.26;100.00;100023.89;108341;1263;72101;-51
2023/05/18 08:08:47;;;;;;;4.40;0.70;;;;;;;23.34;100.00;100017.38;108373;1264;67115;-53
2023/05/18 08:11:13;;;;;;;4.60;0.70;;;;;;;23.41;100.00;100019.83;108383;1263;74801;-52
2023/05/18 08:13:40;;;;;;;2.60;0.60;;;;;;;23.48;100.00;100022.42;108277;1266;59013;-51
2023/05/18 08:16:07;;;;;;;1.90;0.70;;;;;;;23.58;100.00;100021.14;105674;1265;60915;-52
2023/05/18 08:18:38;;;;;;;1.60;0.70;;;;;;;23.66;100.00;100020.80;104514;1269;74133;-51
2023/05/18 08:21:08;;;;;;;5.80;0.80;;;;;;;23.74;100.00;100016.56;105794;1262;69266;-51
2023/05/18 08:23:36;;;;;;;0.80;0.70;;;;;;;23.83;100.00;100012.80;105621;1261;73892;-50
2023/05/18 08:26:03;;;;;;;3.80;0.90;;;;;;;23.91;100.00;100009.77;108558;1257;60363;-51
2023/05/18 08:28:30;;;;;;;0.90;0.70;;;;;;;23.96;100.00;100009.04;106346;1256;59472;-51
2023/05/18 08:30:57;;;;;;;5.60;0.70;;;;;;;24.01;100.00;100003.07;104703;1263;73855;-53
2023/05/18 08:33:25;;;;;;;3.50;0.80;;;;;;;24.05;100.00;100007.29;104269;1258;67121;-52
2023/05/18 08:35:52;;;;;;;4.80;0.80;;;;;;;24.09;100.00;100008.46;105169;1260;73313;-51
2023/05/18 08:38:19;;;;;;;3.00;0.80;;;;;;;24.16;100.00;100008.55;104938;1264;61402;-48
2023/05/18 08:40:52;;;;;;;1.20;1.00;;;;;;;24.21;100.00;100004.36;105761;1257;62564;-52
2023/05/18 08:43:24;;;;;;;0.80;0.80;;;;;;;24.27;100.00;100001.58;106684;1260;74912;-51
2023/05/18 08:45:52;;;;;;;;;;;;;;;24.33;100.00;99996.77;105090;1260;67349;-51
2023/05/18 08:48:21;;;;;;;3.00;0.80;;;;;;;24.39;100.00;99997.80;104959;1261;71297;-52
2023/05/18 08:50:51;;;;;;;1.00;0.70;;;;;;;24.43;100.00;100002.45;104961;1271;60981;-54
2023/05/18 08:53:18;;;;;;;1.00;0.70;;;;;;;24.45;100.00;99994.21;104730;1264;63043;-52
2023/05/18 08:55:45;;;;;;;1.00;0.70;;;;;;;24.47;100.00;99989.73;104947;1258;73270;-52
2023/05/18 08:58:12;;;;;;;2.90;0.90;;;;;;;24.51;100.00;99989.59;104793;1263;66901;-52
2023/05/18 09:00:39;;;;;;;38.70;3.20;;;;;;;24.54;100.00;99993.61;105332;1261;74984;-53
2023/05/18 09:03:07;;;;;;;1.50;0.80;;;;;;;24.59;100.00;99993.84;105096;1257;59716;-50
2023/05/18 09:05:34;;;;;;;5.50;1.10;;;;;;;24.65;100.00;99994.38;105831;1257;61075;-53
2023/05/18 09:08:02;;;;;;;1.10;0.90;;;;;;;24.70;100.00;99989.98;104912;1263;74047;-51
2023/05/18 09:10:29;;;;;;;2.00;0.80;;;;;;;24.72;100.00;99989.52;106053;1259;69418;-51
2023/05/18 09:12:56;;;;;;;1.50;0.70;;;;;;;24.75;100.00;99984.89;105520;1257;72262;-52
2023/05/18 09:15:24;;;;;;;2.40;0.80;;;;;;;24.77;100.00;99982.46;104921;1256;61241;-51
2023/05/18 09:17:51;;;;;;;4.60;0.80;;;;;;;24.79;100.00;99986.80;105116;1257;62509;-52
2023/05/18 09:20:18;;;;;;;2.50;0.70;;;;;;;24.82;100.00;99988.72;105148;1263;72811;-49
2023/05/18 09:22:48;;;;;;;2.00;0.80;;;;;;;24.85;100.00;99983.40;105206;1263;65821;-49
2023/05/18 09:25:15;;;;;;;2.40;0.80;;;;;;;24.89;100.00;99989.25;104927;1261;71512;-51
2023/05/18 09:27:42;;;;;;;3.10;0.80;;;;;;;24.90;100.00;99990.44;104866;1259;62525;-51
2023/05/18 09:30:09;;;;;;;11.20;1.10;;;;;;;24.89;100.00;99985.61;105139;1263;59688;-52
2023/05/18 09:32:36;;;;;;;1.10;0.80;;;;;;;24.89;100.00;99987.02;106264;1263;72220;-52
2023/05/18 09:35:07;;;;;;;2.00;0.80;;;;;;;24.93;100.00;99986.73;105205;1263;67230;-50
2023/05/18 09:37:33;;;;;;;7.90;1.10;;;;;;;24.96;100.00;99987.34;105224;1261;74472;-51
2023/05/18 09:40:03;;;;;;;1.70;0.70;;;;;;;24.98;100.00;99983.20;105230;1257;60054;-52
2023/05/18 09:42:37;;;;;;;5.60;1.20;;;;;;;24.98;100.00;99976.14;105344;1257;60506;-53
2023/05/18 09:45:14;;;;;;;1.40;0.70;;;;;;;24.93;100.00;99978.95;104541;1263;71936;-51
2023/05/18 09:47:41;;;;;;;2.30;1.00;;;;;;;24.89;100.00;99976.39;104789;1263;69212;-52
2023/05/18 09:50:08;;;;;;;3.80;1.00;;;;;;;24.86;100.00;99971.56;105240;1262;71764;-51
2023/05/18 09:52:44;;;;;;;3.20;0.70;;;;;;;24.83;100.00;99970.11;105078;1260;61274;-53
2023/05/18 09:55:12;;;;;;;3.40;0.80;;;;;;;24.81;100.00;99966.27;104941;1257;63124;-53
2023/05/18 09:57:45;;;;;;;1.50;0.80;;;;;;;24.80;100.00;99964.85;104918;1263;74877;-53
2023/05/18 10:00:16;;;;;;;0.80;0.70;;;;;;;24.81;100.00;99959.60;105680;1262;69054;-52
2023/05/18 10:02:47;;;;;;;1.90;0.80;;;;;;;24.84;100.00;99962.40;108747;1257;70732;-53
2023/05/18 10:05:21;;;;;;;3.20;1.00;;;;;;;24.89;100.00;99956.95;108698;1256;60714;-53
2023/05/18 10:07:51;;;;;;;;;;;;;;;24.96;100.00;99956.66;106278;1257;60472;-53
2023/05/18 10:10:19;;;;;;;0.90;0.80;;;;;;;25.02;100.00;99960.92;105612;1257;73428;-52
2023/05/18 10:12:46;;;;;;;1.30;1.00;;;;;;;25.07;100.00;99956.17;108706;1257;67268;-53
2023/05/18 10:15:14;;;;;;;2.00;0.90;;;;;;;25.08;100.00;99946.95;107668;1257;71138;-51
2023/05/18 10:17:42;;;;;;;1.00;0.90;;;;;;;25.07;100.00;99952.33;105109;1256;61499;-51
2023/05/18 10:20:09;;;;;;;1.40;1.10;;;;;;;25.04;100.00;99951.53;107228;1262;58801;-52
2023/05/18 10:22:36;;;;;;;8.00;1.30;;;;;;;25.06;100.00;99949.55;107567;1260;75982;-53
2023/05/18 10:25:04;;;;;;;1.30;1.10;;;;;;;25.08;100.00;99947.81;104397;1263;66058;-52
2023/05/18 10:27:33;;;;;;;8.20;1.30;;;;;;;25.12;100.00;99941.91;104787;1263;72875;-52
2023/05/18 10:30:02;;;;;;;3.90;0.90;;;;;;;25.16;100.00;99942.34;105101;1260;61077;-53
2023/05/18 10:32:30;;;;;;;1.00;1.00;;;;;;;25.20;100.00;99941.78;108627;1259;62032;-52
2023/05/18 10:34:57;;;;;;;1.40;0.90;;;;;;;25.24;100.00;99942.30;108710;1256;74052;-51
2023/05/18 10:37:24;;;;;;;3.50;1.10;;;;;;;25.28;100.00;99936.64;108720;1256;68895;-51
2023/05/18 10:39:51;;;;;;;1.10;1.00;;;;;;;25.33;100.00;99934.58;108619;1256;72436;-52
2023/05/18 10:42:18;;;;;;;3.50;1.00;;;;;;;25.38;100.00;99932.73;108619;1258;59284;-52
2023/05/18 10:44:45;;;;;;;1.90;1.20;;;;;;;25.44;100.00;99932.55;106085;1256;62581;-52
2023/05/18 10:47:13;;;;;;;1.40;1.30;;;;;;;25.45;100.00;99933.23;105002;1257;74367;-53
2023/05/18 10:49:41;;;;;;;2.60;1.20;;;;;;;25.44;100.00;99930.69;105051;1263;66835;-53
2023/05/18 10:52:09;;;;;;;1.30;0.90;;;;;;;25.42;100.00;99924.83;107319;1257;73115;-54
2023/05/18 10:54:36;;;;;;;1.20;1.10;;;;;;;25.39;100.00;99924.86;105197;1260;59776;-52
2023/05/18 10:57:03;;;;;;;1.30;1.00;;;;;;;25.37;100.00;99930.07;105091;1257;62195;-54
2023/05/18 10:59:29;;;;;;;3.10;1.10;;;;;;;25.38;100.00;99922.77;105098;1259;73587;-52
2023/05/18 11:01:56;;;;;;;3.80;1.10;;;;;;;25.39;100.00;99915.14;105122;1263;69257;-53
2023/05/18 11:04:25;;;;;;;3.40;1.10;;;;;;;25.39;100.00;99922.23;108654;1257;73296;-53
2023/05/18 11:06:53;;;;;;;4.30;3.20;;;;;;;25.42;100.00;99919.76;108731;1256;59293;-53
2023/05/18 11:09:21;;;;;;;3.90;1.10;;;;;;;25.43;100.00;99914.27;108848;1256;60870;-54
2023/05/18 11:11:58;;;;;;;6.60;1.70;;;;;;;25.41;100.00;99914.89;108741;1257;74919;-54
2023/05/18 11:14:26;;;;;;;8.60;1.40;;;;;;;25.42;100.00;99914.79;106479;1262;66877;-51
2023/05/18 11:16:53;;;;;;;2.60;1.70;;;;;;;25.40;100.00;99909.64;105568;1259;74812;-50
2023/05/18 11:19:23;;;;;;;2.70;1.10;;;;;;;25.36;100.00;99909.23;105238;1257;62463;-52
2023/05/18 11:21:51;;;;;;;2.50;1.00;;;;;;;25.34;100.00;99913.71;105133;1258;60729;-53
2023/05/18 11:24:22;;;;;;;8.60;2.40;;;;;;;25.32;100.00;99910.73;105077;1262;74834;-52